createdAt,value
2022-11-15T00:09:26.363Z,1.37
2022-11-15T00:24:27.263Z,1.60
2022-11-15T00:39:27.847Z,1.51
2022-11-15T00:54:28.487Z,1.36
2022-11-15T01:09:28.707Z,1.29
2022-11-15T01:24:29.210Z,1.26
2022-11-15T01:39:29.373Z,0.98
2022-11-15T01:54:29.967Z,1.00
2022-11-15T02:09:30.618Z,0.91
2022-11-15T02:24:33.020Z,0.55
2022-11-15T02:39:34.651Z,0.44
2022-11-15T02:54:36.456Z,0.23
2022-11-15T03:09:37.088Z,0.32
2022-11-15T03:24:39.970Z,-0.03
2022-11-15T03:39:41.056Z,0.18
2022-11-15T03:54:41.712Z,0.03
2022-11-15T04:09:42.331Z,-0.14
2022-11-15T04:24:43.099Z,0.04
2022-11-15T04:39:44.682Z,0.07
2022-11-15T04:54:45.750Z,0.15
2022-11-15T05:09:46.449Z,0.18
2022-11-15T05:24:46.524Z,-0.03
2022-11-15T05:39:47.329Z,-0.08
2022-11-15T05:54:47.800Z,0.02
2022-11-15T06:09:48.443Z,-0.14
2022-11-15T06:24:49.180Z,-0.08
2022-11-15T06:39:50.352Z,0.02
2022-11-15T06:54:51.279Z,0.07
2022-11-15T07:09:52.405Z,0.29
2022-11-15T07:24:55.347Z,0.72
2022-11-15T07:39:56.476Z,1.79
2022-11-15T07:54:57.542Z,3.33
2022-11-15T08:09:58.613Z,4.51
2022-11-15T08:24:59.837Z,6.28
2022-11-15T08:40:00.929Z,7.85
2022-11-15T08:55:01.519Z,8.70
2022-11-15T09:10:03.125Z,9.99
2022-11-15T09:25:08.496Z,11.52
2022-11-15T09:40:09.798Z,12.96
2022-11-15T09:55:09.832Z,13.91
2022-11-15T10:10:09.976Z,14.24
2022-11-15T10:25:10.167Z,14.83
2022-11-15T10:40:10.430Z,15.31
2022-11-15T10:55:10.686Z,15.65
2022-11-15T11:10:36.274Z,16.23
2022-11-15T11:25:16.153Z,16.52
2022-11-15T11:40:17.513Z,16.81
2022-11-15T11:55:17.872Z,15.44
2022-11-15T12:10:19.455Z,14.62
2022-11-15T12:25:19.776Z,14.28
2022-11-15T12:40:19.872Z,14.94
2022-11-15T12:55:19.915Z,15.59
2022-11-15T13:10:26.611Z,15.03
2022-11-15T13:25:26.883Z,14.55
2022-11-15T13:40:26.960Z,13.99
2022-11-15T13:55:27.082Z,13.70
2022-11-15T14:10:27.668Z,13.08
2022-11-15T14:25:30.036Z,12.75
2022-11-15T14:40:31.426Z,12.20
2022-11-15T14:55:32.044Z,11.69
2022-11-15T15:10:40.087Z,11.09
2022-11-15T15:25:40.033Z,10.38
2022-11-15T15:40:40.913Z,9.75
2022-11-15T15:55:43.345Z,9.38
2022-11-15T16:10:42.958Z,8.68
2022-11-15T16:25:43.294Z,8.12
2022-11-15T16:40:43.435Z,7.67
2022-11-15T16:55:44.868Z,7.24
2022-11-15T17:10:44.949Z,6.87
2022-11-15T17:25:45.059Z,6.66
2022-11-15T17:40:45.177Z,6.12
2022-11-15T17:55:45.336Z,5.86
2022-11-15T18:10:45.863Z,5.58
2022-11-15T18:25:45.998Z,5.53
2022-11-15T18:40:46.590Z,5.74
2022-11-15T18:55:46.731Z,5.74
2022-11-15T19:10:47.330Z,5.85
2022-11-15T19:25:48.718Z,6.04
2022-11-15T19:40:50.049Z,6.08
2022-11-15T19:55:51.550Z,6.19
2022-11-15T20:10:52.107Z,6.43
2022-11-15T20:25:53.508Z,6.44
2022-11-15T20:40:59.982Z,6.44
2022-11-15T20:56:01.316Z,6.49
2022-11-15T21:11:01.614Z,6.49
2022-11-15T21:26:02.264Z,6.55
2022-11-15T21:41:02.845Z,6.48
2022-11-15T21:56:02.468Z,6.30
2022-11-15T22:11:02.543Z,6.19
2022-11-15T22:26:03.145Z,6.38
2022-11-15T22:41:05.545Z,6.12
2022-11-15T22:56:07.297Z,5.94
2022-11-15T23:11:08.253Z,6.12
2022-11-15T23:26:10.604Z,5.97
2022-11-15T23:41:10.244Z,6.04
2022-11-15T23:56:10.873Z,6.12
